createdAt,value
2022-10-11T00:01:19.822Z,100.00
2022-10-11T00:03:46.322Z,100.00
2022-10-11T00:06:12.816Z,100.00
2022-10-11T00:08:39.310Z,100.00
2022-10-11T00:11:07.462Z,100.00
2022-10-11T00:13:34.456Z,100.00
2022-10-11T00:16:01.153Z,100.00
2022-10-11T00:18:27.856Z,100.00
2022-10-11T00:21:05.268Z,100.00
2022-10-11T00:23:32.472Z,100.00
2022-10-11T00:26:00.845Z,100.00
2022-10-11T00:28:27.953Z,100.00
2022-10-11T00:30:54.518Z,100.00
2022-10-11T00:33:21.211Z,100.00
2022-10-11T00:35:48.839Z,100.00
2022-10-11T00:38:16.097Z,100.00
2022-10-11T00:40:42.911Z,100.00
2022-10-11T00:43:16.451Z,100.00
2022-10-11T00:45:58.088Z,100.00
2022-10-11T00:48:31.069Z,100.00
2022-10-11T00:50:59.979Z,100.00
2022-10-11T00:53:30.427Z,100.00
2022-10-11T00:56:05.466Z,100.00
2022-10-11T00:58:35.095Z,100.00
2022-10-11T01:01:02.071Z,100.00
2022-10-11T01:03:31.726Z,100.00
2022-10-11T01:05:58.368Z,100.00
2022-10-11T01:08:25.777Z,100.00
2022-10-11T01:10:52.516Z,100.00
2022-10-11T01:13:24.631Z,100.00
2022-10-11T01:16:04.878Z,100.00
2022-10-11T01:18:38.441Z,100.00
2022-10-11T01:21:13.757Z,100.00
2022-10-11T01:23:49.011Z,100.00
2022-10-11T01:26:40.578Z,100.00
2022-10-11T01:29:37.114Z,100.00
2022-10-11T01:32:15.352Z,100.00
2022-10-11T01:34:52.253Z,100.00
2022-10-11T01:37:37.046Z,100.00
2022-10-11T01:40:11.617Z,100.00
2022-10-11T01:42:40.323Z,100.00
2022-10-11T01:45:15.545Z,100.00
2022-10-11T01:47:42.676Z,100.00
2022-10-11T01:50:40.118Z,100.00
2022-10-11T01:53:12.690Z,100.00
2022-10-11T01:56:02.382Z,100.00
2022-10-11T01:58:47.395Z,100.00
2022-10-11T02:01:34.721Z,100.00
2022-10-11T02:04:12.190Z,100.00
2022-10-11T02:06:38.989Z,100.00
2022-10-11T02:09:43.897Z,100.00
2022-10-11T02:12:13.198Z,100.00
2022-10-11T02:14:44.462Z,100.00
2022-10-11T02:17:16.866Z,100.00
2022-10-11T02:19:51.799Z,100.00
2022-10-11T02:22:32.986Z,100.00
2022-10-11T02:25:05.329Z,100.00
2022-10-11T02:27:35.842Z,100.00
2022-10-11T02:30:05.086Z,100.00
2022-10-11T02:32:33.031Z,100.00
2022-10-11T02:35:02.090Z,100.00
2022-10-11T02:37:54.934Z,100.00
2022-10-11T02:40:28.028Z,100.00
2022-10-11T02:43:01.388Z,100.00
2022-10-11T02:45:33.795Z,100.00
2022-10-11T02:48:01.022Z,100.00
2022-10-11T02:50:28.043Z,100.00
2022-10-11T02:52:54.570Z,100.00
2022-10-11T02:55:21.306Z,100.00
2022-10-11T02:57:47.834Z,100.00
2022-10-11T03:00:15.323Z,100.00
2022-10-11T03:02:41.914Z,100.00
2022-10-11T03:05:09.117Z,100.00
2022-10-11T03:07:35.709Z,100.00
2022-10-11T03:10:02.467Z,100.00
2022-10-11T03:12:28.977Z,100.00
2022-10-11T03:14:55.568Z,100.00
2022-10-11T03:17:36.127Z,100.00
2022-10-11T03:20:04.891Z,100.00
2022-10-11T03:22:31.450Z,100.00
2022-10-11T03:25:03.376Z,100.00
2022-10-11T03:27:30.532Z,100.00
2022-10-11T03:29:57.813Z,100.00
2022-10-11T03:32:24.482Z,100.00
2022-10-11T03:34:50.979Z,100.00
2022-10-11T03:37:17.671Z,100.00
2022-10-11T03:39:45.648Z,100.00
2022-10-11T03:42:13.559Z,100.00
2022-10-11T03:44:41.701Z,100.00
2022-10-11T03:47:08.996Z,100.00
2022-10-11T03:49:37.727Z,100.00
2022-10-11T03:52:07.930Z,100.00
2022-10-11T03:54:34.434Z,100.00
2022-10-11T03:57:01.326Z,100.00
2022-10-11T03:59:28.210Z,100.00
2022-10-11T04:01:54.770Z,100.00
2022-10-11T04:04:21.353Z,100.00
2022-10-11T04:06:47.873Z,100.00
2022-10-11T04:09:14.378Z,100.00
2022-10-11T04:11:40.897Z,100.00
2022-10-11T04:14:07.388Z,100.00
2022-10-11T04:16:35.255Z,100.00
2022-10-11T04:19:01.754Z,100.00
2022-10-11T04:21:28.256Z,100.00
2022-10-11T04:23:54.851Z,100.00
2022-10-11T04:26:21.533Z,100.00
2022-10-11T04:28:48.142Z,100.00
2022-10-11T04:31:14.846Z,100.00
2022-10-11T04:33:41.509Z,100.00
2022-10-11T04:36:08.748Z,100.00
2022-10-11T04:38:35.672Z,100.00
2022-10-11T04:41:10.029Z,100.00
2022-10-11T04:43:36.833Z,100.00
2022-10-11T04:46:04.057Z,100.00
2022-10-11T04:48:31.119Z,100.00
2022-10-11T04:50:57.729Z,100.00
2022-10-11T04:53:24.340Z,100.00
2022-10-11T04:56:02.884Z,100.00
2022-10-11T04:58:30.937Z,100.00
2022-10-11T05:00:57.793Z,100.00
2022-10-11T05:03:25.023Z,100.00
2022-10-11T05:05:52.891Z,100.00
2022-10-11T05:08:20.389Z,100.00
2022-10-11T05:11:01.235Z,100.00
2022-10-11T05:13:28.934Z,100.00
2022-10-11T05:15:55.480Z,100.00
2022-10-11T05:18:22.723Z,100.00
2022-10-11T05:20:50.394Z,100.00
2022-10-11T05:23:16.895Z,100.00
2022-10-11T05:25:43.431Z,100.00
2022-10-11T05:28:10.027Z,100.00
2022-10-11T05:30:36.559Z,100.00
2022-10-11T05:33:03.235Z,100.00
2022-10-11T05:35:29.779Z,100.00
2022-10-11T05:37:56.367Z,100.00
2022-10-11T05:40:22.892Z,100.00
2022-10-11T05:42:49.404Z,100.00
2022-10-11T05:45:15.914Z,100.00
2022-10-11T05:47:42.429Z,100.00
2022-10-11T05:50:09.390Z,100.00
2022-10-11T05:52:35.895Z,100.00
2022-10-11T05:55:03.398Z,100.00
2022-10-11T05:57:29.936Z,100.00
2022-10-11T05:59:56.690Z,100.00
2022-10-11T06:02:23.219Z,100.00
2022-10-11T06:04:49.709Z,100.00
2022-10-11T06:07:16.241Z,100.00
2022-10-11T06:09:42.733Z,100.00
2022-10-11T06:12:09.253Z,100.00
2022-10-11T06:14:36.014Z,100.00
2022-10-11T06:17:02.546Z,100.00
2022-10-11T06:19:29.051Z,100.00
2022-10-11T06:21:55.588Z,100.00
2022-10-11T06:24:22.215Z,100.00
2022-10-11T06:26:49.308Z,100.00
2022-10-11T06:29:15.967Z,100.00
2022-10-11T06:31:42.586Z,100.00
2022-10-11T06:34:09.555Z,100.00
2022-10-11T06:36:36.243Z,100.00
2022-10-11T06:39:03.073Z,100.00
2022-10-11T06:41:30.873Z,100.00
2022-10-11T06:43:57.907Z,100.00
2022-10-11T06:46:26.157Z,100.00
2022-10-11T06:48:53.945Z,100.00
2022-10-11T06:51:21.960Z,100.00
2022-10-11T06:53:56.739Z,100.00
2022-10-11T06:56:23.777Z,100.00
2022-10-11T06:58:51.292Z,100.00
2022-10-11T07:01:20.355Z,100.00
2022-10-11T07:03:48.299Z,100.00
2022-10-11T07:06:18.177Z,100.00
2022-10-11T07:08:45.040Z,100.00
2022-10-11T07:11:14.896Z,100.00
2022-10-11T07:13:41.998Z,100.00
2022-10-11T07:16:11.886Z,100.00
2022-10-11T07:18:39.074Z,100.00
2022-10-11T07:21:08.251Z,100.00
2022-10-11T07:23:34.982Z,100.00
2022-10-11T07:26:01.734Z,100.00
2022-10-11T07:28:30.587Z,100.00
2022-10-11T07:30:58.484Z,100.00
2022-10-11T07:33:25.281Z,100.00
2022-10-11T07:35:51.893Z,100.00
2022-10-11T07:38:18.452Z,100.00
2022-10-11T07:40:46.485Z,100.00
2022-10-11T07:43:13.917Z,100.00
2022-10-11T07:45:41.852Z,100.00
2022-10-11T07:48:08.943Z,100.00
2022-10-11T07:51:05.298Z,100.00
2022-10-11T07:53:31.983Z,100.00
2022-10-11T07:56:02.675Z,100.00
2022-10-11T07:58:29.512Z,100.00
2022-10-11T08:00:56.071Z,100.00
2022-10-11T08:03:22.877Z,100.00
2022-10-11T08:05:49.461Z,100.00
2022-10-11T08:08:16.016Z,100.00
2022-10-11T08:10:42.523Z,100.00
2022-10-11T08:13:09.045Z,100.00
2022-10-11T08:15:35.664Z,100.00
2022-10-11T08:18:02.189Z,100.00
2022-10-11T08:20:31.108Z,100.00
2022-10-11T08:22:57.833Z,100.00
2022-10-11T08:25:24.425Z,100.00
2022-10-11T08:27:50.936Z,100.00
2022-10-11T08:30:17.575Z,100.00
2022-10-11T08:32:44.126Z,100.00
2022-10-11T08:35:10.618Z,100.00
2022-10-11T08:37:37.260Z,100.00
2022-10-11T08:40:05.913Z,100.00
2022-10-11T08:42:41.599Z,100.00
2022-10-11T08:45:16.931Z,100.00
2022-10-11T08:47:45.314Z,100.00
2022-10-11T08:50:19.880Z,100.00
2022-10-11T08:52:52.578Z,100.00
2022-10-11T08:55:26.339Z,100.00
2022-10-11T08:57:56.346Z,100.00
2022-10-11T09:00:25.212Z,100.00
2022-10-11T09:03:19.532Z,100.00
2022-10-11T09:05:55.945Z,100.00
2022-10-11T09:08:53.342Z,100.00
2022-10-11T09:11:46.870Z,100.00
2022-10-11T09:14:51.142Z,100.00
2022-10-11T09:17:26.219Z,100.00
2022-10-11T09:20:11.645Z,100.00
2022-10-11T09:22:55.152Z,100.00
2022-10-11T09:25:30.415Z,100.00
2022-10-11T09:28:03.817Z,100.00
2022-10-11T09:30:30.686Z,100.00
2022-10-11T09:33:13.446Z,100.00
2022-10-11T09:35:44.471Z,100.00
2022-10-11T09:38:38.611Z,100.00
2022-10-11T09:41:14.633Z,100.00
2022-10-11T09:43:44.981Z,100.00
2022-10-11T09:46:34.195Z,100.00
2022-10-11T09:49:04.219Z,100.00
2022-10-11T09:51:31.353Z,100.00
2022-10-11T09:53:57.892Z,100.00
2022-10-11T09:56:26.402Z,98.75
2022-10-11T09:59:14.695Z,100.00
2022-10-11T10:01:41.291Z,100.00
2022-10-11T10:04:11.475Z,100.00
2022-10-11T10:06:40.059Z,100.00
2022-10-11T10:09:26.912Z,99.77
2022-10-11T10:11:55.568Z,100.00
2022-10-11T10:14:30.525Z,98.88
2022-10-11T10:17:14.626Z,99.87
2022-10-11T10:19:49.323Z,97.36
2022-10-11T10:22:20.631Z,97.93
2022-10-11T10:24:49.264Z,97.60
2022-10-11T10:27:21.175Z,96.85
2022-10-11T10:30:03.136Z,98.91
2022-10-11T10:32:47.562Z,98.73
2022-10-11T10:35:24.036Z,95.71
2022-10-11T10:37:56.715Z,96.39
2022-10-11T10:40:28.984Z,95.36
2022-10-11T10:42:55.503Z,95.55
2022-10-11T10:45:29.435Z,95.94
2022-10-11T10:48:09.307Z,94.42
2022-10-11T10:50:52.546Z,96.09
2022-10-11T10:53:37.639Z,93.24
2022-10-11T10:56:19.017Z,94.11
2022-10-11T10:59:30.586Z,91.68
2022-10-11T11:02:40.805Z,91.75
2022-10-11T11:05:48.423Z,93.98
2022-10-11T11:08:30.157Z,93.28
2022-10-11T11:11:08.631Z,92.72
2022-10-11T11:13:48.477Z,92.70
2022-10-11T11:16:20.972Z,92.93
2022-10-11T11:19:02.983Z,94.45
2022-10-11T11:21:41.765Z,91.53
2022-10-11T11:24:44.143Z,93.77
2022-10-11T11:27:31.281Z,93.51
2022-10-11T11:30:10.206Z,91.11
2022-10-11T11:32:48.723Z,92.34
2022-10-11T11:35:17.991Z,92.44
2022-10-11T11:37:48.271Z,94.19
2022-10-11T11:40:27.168Z,94.08
2022-10-11T11:43:00.940Z,93.97
2022-10-11T11:45:37.480Z,94.00
2022-10-11T11:48:13.377Z,93.21
2022-10-11T11:50:46.245Z,92.27
2022-10-11T11:53:22.854Z,93.06
2022-10-11T11:55:59.130Z,92.56
2022-10-11T11:58:38.923Z,93.44
2022-10-11T12:01:36.046Z,91.35
2022-10-11T12:04:08.695Z,91.56
2022-10-11T12:06:47.674Z,93.14
2022-10-11T12:09:23.602Z,93.82
2022-10-11T12:11:57.291Z,93.18
2022-10-11T12:14:43.983Z,93.37
2022-10-11T12:17:16.374Z,89.83
2022-10-11T12:20:02.270Z,90.69
2022-10-11T12:22:28.927Z,88.57
2022-10-11T12:24:57.159Z,88.01
2022-10-11T12:27:57.071Z,89.03
2022-10-11T12:30:48.640Z,88.30
2022-10-11T12:33:26.127Z,88.91
2022-10-11T12:35:55.552Z,88.41
2022-10-11T12:38:25.134Z,86.50
2022-10-11T12:41:03.084Z,85.58
2022-10-11T12:43:36.370Z,87.33
2022-10-11T12:46:33.647Z,86.57
2022-10-11T12:49:36.273Z,86.31
2022-10-11T12:52:05.080Z,85.75
2022-10-11T12:55:29.799Z,84.32
2022-10-11T12:58:30.557Z,84.57
2022-10-11T13:00:57.896Z,83.73
2022-10-11T13:03:42.697Z,85.19
2022-10-11T13:06:15.338Z,84.89
2022-10-11T13:08:45.144Z,83.01
2022-10-11T13:11:19.079Z,82.59
2022-10-11T13:13:52.263Z,81.80
2022-10-11T13:16:22.400Z,81.74
2022-10-11T13:18:53.802Z,82.61
2022-10-11T13:21:28.370Z,81.08
2022-10-11T13:23:58.976Z,82.76
2022-10-11T13:26:28.258Z,83.25
2022-10-11T13:28:55.594Z,84.81
2022-10-11T13:31:24.207Z,84.49
2022-10-11T13:33:57.288Z,84.48
2022-10-11T13:36:26.827Z,84.50
2022-10-11T13:38:59.192Z,83.58
2022-10-11T13:41:30.626Z,83.83
2022-10-11T13:43:59.096Z,83.16
2022-10-11T13:46:27.996Z,83.76
2022-10-11T13:49:06.795Z,84.75
2022-10-11T13:51:37.743Z,85.83
2022-10-11T13:54:09.469Z,86.95
2022-10-11T13:56:47.481Z,87.82
2022-10-11T13:59:23.001Z,87.71
2022-10-11T14:01:55.290Z,88.09
2022-10-11T14:04:24.101Z,88.10
2022-10-11T14:06:56.681Z,88.30
2022-10-11T14:09:30.892Z,88.75
2022-10-11T14:12:28.239Z,89.29
2022-10-11T14:14:54.816Z,89.63
2022-10-11T14:17:32.555Z,88.99
2022-10-11T14:20:11.900Z,89.46
2022-10-11T14:22:39.023Z,89.92
2022-10-11T14:25:05.942Z,90.35
2022-10-11T14:27:32.750Z,90.48
2022-10-11T14:30:25.200Z,90.65
2022-10-11T14:32:49.113Z,90.02
2022-10-11T14:35:23.332Z,90.56
2022-10-11T14:37:50.282Z,90.96
2022-10-11T14:40:20.680Z,91.37
2022-10-11T14:42:47.789Z,91.85
2022-10-11T14:45:14.336Z,92.31
2022-10-11T14:47:43.122Z,92.85
2022-10-11T14:50:54.363Z,93.18
2022-10-11T14:53:21.164Z,92.85
2022-10-11T14:55:48.300Z,93.46
2022-10-11T14:58:16.706Z,94.03
2022-10-11T15:00:43.720Z,93.50
2022-10-11T15:03:10.447Z,94.01
2022-10-11T15:05:37.348Z,94.64
2022-10-11T15:08:05.846Z,94.72
2022-10-11T15:10:40.433Z,95.17
2022-10-11T15:13:08.240Z,95.02
2022-10-11T15:15:40.646Z,95.32
2022-10-11T15:18:12.292Z,95.42
2022-10-11T15:20:42.610Z,95.97
2022-10-11T15:23:10.567Z,96.86
2022-10-11T15:25:38.906Z,97.00
2022-10-11T15:28:06.731Z,96.37
2022-10-11T15:30:40.961Z,96.15
2022-10-11T15:33:08.126Z,95.92
2022-10-11T15:35:34.617Z,99.02
2022-10-11T15:38:01.198Z,98.46
2022-10-11T15:40:35.815Z,97.19
2022-10-11T15:43:03.756Z,95.37
2022-10-11T15:45:30.462Z,95.04
2022-10-11T15:47:57.169Z,95.14
2022-10-11T15:50:36.811Z,94.61
2022-10-11T15:53:05.698Z,94.53
2022-10-11T15:55:34.021Z,95.24
2022-10-11T15:58:04.174Z,94.67
2022-10-11T16:00:30.797Z,95.14
2022-10-11T16:02:59.211Z,95.41
2022-10-11T16:05:27.919Z,95.44
2022-10-11T16:07:54.936Z,94.65
2022-10-11T16:10:21.650Z,94.05
2022-10-11T16:12:48.289Z,93.76
2022-10-11T16:15:15.528Z,94.42
2022-10-11T16:17:42.123Z,94.75
2022-10-11T16:20:09.090Z,94.55
2022-10-11T16:22:36.009Z,94.86
2022-10-11T16:25:04.618Z,95.09
2022-10-11T16:27:31.289Z,95.20
2022-10-11T16:29:58.236Z,95.54
2022-10-11T16:32:25.446Z,95.70
2022-10-11T16:34:51.990Z,96.79
2022-10-11T16:37:19.012Z,96.60
2022-10-11T16:39:45.936Z,96.67
2022-10-11T16:42:12.500Z,96.83
2022-10-11T16:44:39.381Z,97.26
2022-10-11T16:47:06.625Z,97.17
2022-10-11T16:49:33.566Z,97.21
2022-10-11T16:52:02.276Z,97.88
2022-10-11T16:54:30.298Z,98.23
2022-10-11T16:56:57.862Z,98.14
2022-10-11T16:59:24.623Z,98.61
2022-10-11T17:01:51.517Z,98.99
2022-10-11T17:04:18.299Z,98.91
2022-10-11T17:06:44.955Z,99.61
2022-10-11T17:09:11.926Z,100.00
2022-10-11T17:11:38.487Z,100.00
2022-10-11T17:14:06.189Z,100.00
2022-10-11T17:16:32.897Z,100.00
2022-10-11T17:18:59.577Z,100.00
2022-10-11T17:21:26.085Z,100.00
2022-10-11T17:23:53.180Z,100.00
2022-10-11T17:26:27.734Z,100.00
2022-10-11T17:28:55.922Z,100.00
2022-10-11T17:31:23.937Z,100.00
2022-10-11T17:33:51.215Z,100.00
2022-10-11T17:36:25.190Z,100.00
2022-10-11T17:38:52.323Z,100.00
2022-10-11T17:41:19.312Z,100.00
2022-10-11T17:43:46.735Z,100.00
2022-10-11T17:46:14.883Z,100.00
2022-10-11T17:48:41.878Z,100.00
2022-10-11T17:51:15.417Z,100.00
2022-10-11T17:53:42.088Z,100.00
2022-10-11T17:56:12.029Z,100.00
2022-10-11T17:58:39.180Z,100.00
2022-10-11T18:01:09.777Z,100.00
2022-10-11T18:03:36.803Z,100.00
2022-10-11T18:06:08.209Z,100.00
2022-10-11T18:08:40.221Z,100.00
2022-10-11T18:11:19.790Z,100.00
2022-10-11T18:13:51.546Z,100.00
2022-10-11T18:16:23.035Z,100.00
2022-10-11T18:18:49.997Z,100.00
2022-10-11T18:21:18.424Z,100.00
2022-10-11T18:23:45.782Z,100.00
2022-10-11T18:26:15.347Z,100.00
2022-10-11T18:28:43.053Z,100.00
2022-10-11T18:31:15.868Z,100.00
2022-10-11T18:33:45.534Z,100.00
2022-10-11T18:36:16.558Z,100.00
2022-10-11T18:38:46.704Z,100.00
2022-10-11T18:41:20.048Z,100.00
2022-10-11T18:43:55.234Z,100.00
2022-10-11T18:46:23.238Z,100.00
2022-10-11T18:48:52.214Z,100.00
2022-10-11T18:51:20.422Z,100.00
2022-10-11T18:53:47.688Z,100.00
2022-10-11T18:56:16.049Z,100.00
2022-10-11T18:58:44.746Z,100.00
2022-10-11T19:01:16.013Z,100.00
2022-10-11T19:03:43.740Z,100.00
2022-10-11T19:06:17.199Z,100.00
2022-10-11T19:08:48.385Z,100.00
2022-10-11T19:11:16.508Z,100.00
2022-10-11T19:13:43.902Z,100.00
2022-10-11T19:16:13.568Z,100.00
2022-10-11T19:18:44.303Z,100.00
2022-10-11T19:21:13.145Z,100.00
2022-10-11T19:23:44.277Z,100.00
2022-10-11T19:26:15.224Z,100.00
2022-10-11T19:28:42.511Z,100.00
2022-10-11T19:31:13.095Z,100.00
2022-10-11T19:33:39.723Z,100.00
2022-10-11T19:36:06.962Z,100.00
2022-10-11T19:38:35.079Z,100.00
2022-10-11T19:41:03.028Z,100.00
2022-10-11T19:43:29.602Z,100.00
2022-10-11T19:46:08.377Z,100.00
2022-10-11T19:48:39.298Z,100.00
2022-10-11T19:51:12.148Z,100.00
2022-10-11T19:53:38.803Z,100.00
2022-10-11T19:56:09.447Z,100.00
2022-10-11T19:58:36.000Z,100.00
2022-10-11T20:01:08.261Z,100.00
2022-10-11T20:03:35.100Z,100.00
2022-10-11T20:06:07.467Z,100.00
2022-10-11T20:08:35.750Z,100.00
2022-10-11T20:11:05.531Z,100.00
2022-10-11T20:13:34.998Z,100.00
2022-10-11T20:16:13.783Z,100.00
2022-10-11T20:18:41.310Z,100.00
2022-10-11T20:21:13.067Z,100.00
2022-10-11T20:26:21.175Z,100.00
2022-10-11T20:28:54.994Z,100.00
2022-10-11T20:31:28.228Z,100.00
2022-10-11T20:33:57.320Z,100.00
2022-10-11T20:36:26.749Z,100.00
2022-10-11T20:38:53.312Z,100.00
2022-10-11T20:41:28.367Z,100.00
2022-10-11T20:43:57.226Z,100.00
2022-10-11T20:46:28.035Z,100.00
2022-10-11T20:49:01.291Z,100.00
2022-10-11T20:51:32.742Z,100.00
2022-10-11T20:54:00.953Z,100.00
2022-10-11T20:56:28.534Z,100.00
2022-10-11T20:58:56.301Z,100.00
2022-10-11T21:01:28.715Z,100.00
2022-10-11T21:03:59.274Z,100.00
2022-10-11T21:06:27.208Z,100.00
2022-10-11T21:08:59.068Z,100.00
2022-10-11T21:11:31.460Z,100.00
2022-10-11T21:14:00.243Z,100.00
2022-10-11T21:16:27.375Z,100.00
2022-10-11T21:18:57.399Z,100.00
2022-10-11T21:21:25.231Z,100.00
2022-10-11T21:24:00.724Z,100.00
2022-10-11T21:26:28.729Z,100.00
2022-10-11T21:28:55.596Z,100.00
2022-10-11T21:31:23.189Z,100.00
2022-10-11T21:33:49.804Z,100.00
2022-10-11T21:36:21.519Z,100.00
2022-10-11T21:38:49.050Z,100.00
2022-10-11T21:41:18.471Z,100.00
2022-10-11T21:43:45.733Z,100.00
2022-10-11T21:46:15.926Z,100.00
2022-10-11T21:48:42.457Z,100.00
2022-10-11T21:51:15.246Z,100.00
2022-10-11T21:53:41.831Z,100.00
2022-10-11T21:56:08.707Z,100.00
2022-10-11T21:58:35.230Z,100.00
2022-10-11T22:01:01.759Z,100.00
2022-10-11T22:03:28.282Z,100.00
2022-10-11T22:05:54.844Z,100.00
2022-10-11T22:08:21.404Z,100.00
2022-10-11T22:10:57.317Z,100.00
2022-10-11T22:13:24.847Z,100.00
2022-10-11T22:15:51.524Z,100.00
2022-10-11T22:18:18.072Z,100.00
2022-10-11T22:20:44.687Z,100.00
2022-10-11T22:23:11.699Z,100.00
2022-10-11T22:25:39.084Z,100.00
2022-10-11T22:28:06.669Z,100.00
2022-10-11T22:30:33.731Z,100.00
2022-10-11T22:33:00.246Z,100.00
2022-10-11T22:35:26.902Z,100.00
2022-10-11T22:37:53.471Z,100.00
2022-10-11T22:40:20.252Z,100.00
2022-10-11T22:42:46.871Z,100.00
2022-10-11T22:45:13.475Z,100.00
2022-10-11T22:47:39.950Z,100.00
2022-10-11T22:50:06.683Z,100.00
2022-10-11T22:52:33.163Z,100.00
2022-10-11T22:54:59.674Z,100.00
2022-10-11T22:57:26.163Z,100.00
2022-10-11T22:59:52.709Z,100.00
2022-10-11T23:02:19.201Z,100.00
2022-10-11T23:04:45.727Z,100.00
2022-10-11T23:07:12.252Z,100.00
2022-10-11T23:09:38.774Z,100.00
2022-10-11T23:12:05.556Z,100.00
2022-10-11T23:14:32.100Z,100.00
2022-10-11T23:16:58.617Z,100.00
2022-10-11T23:19:25.177Z,100.00
2022-10-11T23:21:51.724Z,100.00
2022-10-11T23:24:18.281Z,100.00
2022-10-11T23:26:44.759Z,100.00
2022-10-11T23:29:11.317Z,100.00
2022-10-11T23:31:37.801Z,100.00
2022-10-11T23:34:04.342Z,100.00
2022-10-11T23:36:30.844Z,100.00
2022-10-11T23:38:58.684Z,100.00
2022-10-11T23:41:28.878Z,100.00
2022-10-11T23:43:56.003Z,100.00
2022-10-11T23:46:22.671Z,100.00
2022-10-11T23:48:49.221Z,100.00
2022-10-11T23:51:16.597Z,100.00
2022-10-11T23:53:43.097Z,100.00
2022-10-11T23:56:11.321Z,100.00
2022-10-11T23:58:38.100Z,100.00
